Flight Track Log - Related Links

Times and Time Zones

All times are in EDT time to prevent confusion due to time zone crossing. See the GLA170 flight status page for this flight to view local times or setup timezone preferences in your user account.

Time Position Orientation Groundspeed Altitude Reporting Facility
EDT Latitude Longitude Course Direction KTS MPH feet Rate Location/Type
Sun 08:48:40 PM 33.9333 -118.4333 225° Southwest 148 170 1,500  Level Southern California TRACON
Sun 08:49:59 PM 33.8958 -118.4786 197° South 178 205 3,800 1,856 Climbing Los Angeles Center
Sun 08:50:59 PM 33.8517 -118.4950 167° South 178 205 5,800 1,966 Climbing Los Angeles Center
Sun 08:51:58 PM 33.8122 -118.4839 119° Southeast 169 194 7,700 1,966 Climbing Los Angeles Center
Sun 08:52:58 PM 33.7903 -118.4358 99° East 140 161 9,700 1,736 Climbing Los Angeles Center
Sun 08:53:59 PM 33.7831 -118.3781 89° East 145 167 11,200 1,250 Climbing Los Angeles Center
Sun 08:54:58 PM 33.7842 -118.3131 89° East 169 194 12,200 1,300 Climbing Los Angeles Center
Sun 08:55:59 PM 33.7853 -118.2431 93° East 199 229 13,800 1,400 Climbing Los Angeles Center
Sun 08:56:58 PM 33.7825 -118.1731 91° East 204 235 15,000 1,200 Climbing Los Angeles Center
Sun 08:57:59 PM 33.7817 -118.0956 89° East 210 242 16,200 992 Climbing Los Angeles Center
Sun 08:58:59 PM 33.7828 -118.0206 96° East 217 250 17,000 403 Climbing Los Angeles Center
Sun 08:59:58 PM 33.7756 -117.9381 94° East 227 261 17,000 50 Level Los Angeles Center
Sun 09:00:58 PM 33.7706 -117.8506 95° East 242 278 17,100  Climbing Los Angeles Center
Sun 09:01:59 PM 33.7636 -117.7603 96° East 256 295 17,000 -50 Descending Los Angeles Center
Sun 09:02:59 PM 33.7564 -117.6728 95° East 256 295 17,000 50 Level Los Angeles Center
Sun 09:03:59 PM 33.7511 -117.5928 95° East 256 295 17,100 50 Climbing Los Angeles Center
Sun 09:04:58 PM 33.7439 -117.5028 97° East 261 300 17,100 -50 Level Los Angeles Center
Sun 09:05:58 PM 33.7344 -117.4150 96° East 261 300 17,000 -50 Descending Los Angeles Center
Sun 09:06:59 PM 33.7269 -117.3250 96° East 261 300 17,000 50 Level Los Angeles Center
Sun 09:07:59 PM 33.7194 -117.2375 94° East 261 300 17,100  Climbing Los Angeles Center
Sun 09:08:58 PM 33.7139 -117.1500 98° East 261 300 17,000 -50 Descending Los Angeles Center
Sun 09:09:59 PM 33.7042 -117.0625 96° East 261 300 17,000  Level Los Angeles Center
Sun 09:10:58 PM 33.6964 -116.9725 98° East 261 300 17,000  Level Los Angeles Center
Sun 09:11:59 PM 33.6867 -116.8850 96° East 261 300 17,000 -50 Level Los Angeles Center
Sun 09:12:58 PM 33.6789 -116.7978 96° East 261 300 16,900 -100 Descending Los Angeles Center
Sun 09:13:59 PM 33.6708 -116.7128 95° East 261 300 16,800 -50 Descending Los Angeles Center
Sun 09:14:59 PM 33.6650 -116.6253 94° East 261 300 16,800  Level Los Angeles Center
Sun 09:15:59 PM 33.6592 -116.5356 96° East 261 300 16,800 150 Level Los Angeles Center
Sun 09:16:59 PM 33.6511 -116.4506 97° East 261 300 17,100 200 Climbing Los Angeles Center
Sun 09:17:59 PM 33.6428 -116.3633 95° East 256 295 17,200  Climbing Los Angeles Center
Sun 09:18:59 PM 33.6367 -116.2758 92° East 256 295 17,100 -50 Descending Los Angeles Center
Sun 09:19:59 PM 33.6347 -116.1886 85° East 256 295 17,100  Level Los Angeles Center
Sun 09:20:59 PM 33.6411 -116.0986 66° East 256 295 17,100  Level Los Angeles Center
Sun 09:21:58 PM 33.6722 -116.0164 66° East 256 295 17,100  Level Los Angeles Center
Sun 09:22:58 PM 33.7036 -115.9314 68° East 267 307 17,100  Level Los Angeles Center
Sun 09:23:59 PM 33.7325 -115.8464 67° East 267 307 17,100  Level Los Angeles Center
Sun 09:24:58 PM 33.7617 -115.7639 68° East 267 307 17,100  Level Los Angeles Center
Sun 09:25:58 PM 33.7906 -115.6764 66° East 273 314 17,100  Level Los Angeles Center
Sun 09:26:58 PM 33.8214 -115.5911 67° East 273 314 17,100  Level Los Angeles Center
Sun 09:27:59 PM 33.8544 -115.4983 69° East 273 314 17,100 -50 Level Los Angeles Center
Sun 09:28:58 PM 33.8831 -115.4106 66° East 273 314 17,000  Descending Los Angeles Center
Sun 09:29:58 PM 33.9139 -115.3278 69° East 273 314 17,100  Climbing Los Angeles Center
Sun 09:30:58 PM 33.9425 -115.2397 66° East 273 314 17,000  Descending Los Angeles Center
Sun 09:31:58 PM 33.9733 -115.1544 65° Northeast 273 314 17,100  Climbing Los Angeles Center
Sun 09:32:58 PM 34.0058 -115.0689 69° East 273 314 17,000  Descending Los Angeles Center
Sun 09:33:58 PM 34.0344 -114.9808 69° East 273 314 17,100 50 Climbing Los Angeles Center
Sun 09:34:58 PM 34.0628 -114.8925 67° East 273 314 17,100 -50 Level Los Angeles Center
Sun 09:35:59 PM 34.0931 -114.8067 69° East 273 314 17,000 100 Descending Los Angeles Center
Sun 09:36:58 PM 34.1214 -114.7161 67° East 273 314 17,300 100 Climbing Los Angeles Center
Sun 09:37:59 PM 34.1517 -114.6278 67° East 273 314 17,200 -50 Descending Los Angeles Center
Sun 09:38:59 PM 34.1819 -114.5417 67° East 273 314 17,200  Level Los Angeles Center
Sun 09:39:59 PM 34.2119 -114.4558 69° East 273 314 17,200 -74 Level Los Angeles Center
Sun 09:41:41 PM 34.2628 -114.2992 69° East 296 341 17,000 -37 Descending Albuquerque Center
Sun 09:42:41 PM 34.2908 -114.2111 72° East 290 334 17,100  Climbing Albuquerque Center
Sun 09:43:41 PM 34.3147 -114.1200 74° East 285 328 17,000 -150 Descending Albuquerque Center
Sun 09:44:41 PM 34.3364 -114.0286 71° East 280 322 16,800  Descending Albuquerque Center
Sun 09:45:41 PM 34.3625 -113.9353 74° East 280 322 17,000 100 Climbing Albuquerque Center
Sun 09:46:41 PM 34.3842 -113.8439 74° East 280 322 17,000  Level Albuquerque Center
Sun 09:47:41 PM 34.4058 -113.7525 73° East 280 322 17,000  Level Albuquerque Center
Sun 09:48:41 PM 34.4294 -113.6611 74° East 280 322 17,000 -100 Level Albuquerque Center
Sun 09:49:41 PM 34.4483 -113.5794 76° East 280 322 16,800 -450 Descending Albuquerque Center
Sun 09:50:41 PM 34.4678 -113.4878 75° East 280 322 16,100 -750 Descending Albuquerque Center
Sun 09:51:41 PM 34.4892 -113.3936 73° East 280 322 15,300 -700 Descending Albuquerque Center
Sun 09:52:41 PM 34.5128 -113.2994 75° East 280 322 14,700 -650 Descending Albuquerque Center
Sun 09:53:41 PM 34.5342 -113.2028 77° East 285 328 14,000 -750 Descending Albuquerque Center
Sun 09:54:41 PM 34.5539 -113.0983 84° East 290 334 13,200 -700 Descending Albuquerque Center
Sun 09:55:41 PM 34.5628 -113.0006 85° East 290 334 12,600 -600 Descending Albuquerque Center
Sun 09:56:41 PM 34.5692 -112.9025 85° East 290 334 12,000 -600 Descending Albuquerque Center
Sun 09:57:41 PM 34.5758 -112.8047 84° East 290 334 11,400 -750 Descending Albuquerque Center
Sun 09:58:41 PM 34.5844 -112.7069 84° East 290 334 10,500 -1,100 Descending Albuquerque Center
Sun 09:59:41 PM 34.5931 -112.6089 78° East 290 334 9,200 -1,250 Descending Albuquerque Center
Sun 10:00:41 PM 34.6069 -112.5292 53° Northeast 273 314 8,000 -1,200 Descending Albuquerque Center
Sun 10:01:41 PM 34.6428 -112.4708 42° Northeast 230 265 6,800 -850 Descending Albuquerque Center
Sun 10:02:41 PM 34.6844 -112.4253 121° Southeast 201 231 6,300 -750 Descending Albuquerque Center
Sun 10:03:41 PM 34.6728 -112.4019 121° Southeast 77 89 5,300 -1,000 Descending Albuquerque Center

Login

Don't have an account? Register now (free) for customized features, flight alerts, and more!